sensor_id;sensor_type;location;lat;lon;timestamp;P1;durP1;ratioP1;P2;durP2;ratioP2
10281;SDS011;5186;59.472;18.048;2023-05-07T00:02:01;7.57;;;2.10;;
10281;SDS011;5186;59.472;18.048;2023-05-07T00:04:28;4.63;;;2.00;;
10281;SDS011;5186;59.472;18.048;2023-05-07T00:07:00;4.10;;;2.10;;
10281;SDS011;5186;59.472;18.048;2023-05-07T00:09:26;4.43;;;1.80;;
10281;SDS011;5186;59.472;18.048;2023-05-07T00:11:52;4.27;;;1.87;;
10281;SDS011;5186;59.472;18.048;2023-05-07T00:14:18;2.33;;;1.77;;
10281;SDS011;5186;59.472;18.048;2023-05-07T00:16:43;4.50;;;1.87;;
10281;SDS011;5186;59.472;18.048;2023-05-07T00:19:09;5.77;;;2.13;;
10281;SDS011;5186;59.472;18.048;2023-05-07T00:21:35;3.67;;;1.97;;
10281;SDS011;5186;59.472;18.048;2023-05-07T00:24:00;4.10;;;1.77;;
10281;SDS011;5186;59.472;18.048;2023-05-07T00:26:26;3.13;;;1.80;;
10281;SDS011;5186;59.472;18.048;2023-05-07T00:28:52;3.60;;;1.80;;
10281;SDS011;5186;59.472;18.048;2023-05-07T00:31:17;3.07;;;1.57;;
10281;SDS011;5186;59.472;18.048;2023-05-07T00:33:43;5.17;;;1.70;;
10281;SDS011;5186;59.472;18.048;2023-05-07T00:36:08;2.73;;;1.60;;
10281;SDS011;5186;59.472;18.048;2023-05-07T00:38:34;3.10;;;1.70;;
10281;SDS011;5186;59.472;18.048;2023-05-07T00:41:00;5.37;;;2.00;;
10281;SDS011;5186;59.472;18.048;2023-05-07T00:43:27;1.50;;;1.40;;
10281;SDS011;5186;59.472;18.048;2023-05-07T00:45:53;3.50;;;1.87;;
10281;SDS011;5186;59.472;18.048;2023-05-07T00:48:18;6.17;;;2.30;;
10281;SDS011;5186;59.472;18.048;2023-05-07T00:50:45;12.13;;;2.63;;
10281;SDS011;5186;59.472;18.048;2023-05-07T00:53:12;6.93;;;2.40;;
10281;SDS011;5186;59.472;18.048;2023-05-07T00:55:38;6.97;;;2.00;;
10281;SDS011;5186;59.472;18.048;2023-05-07T00:58:03;4.40;;;2.03;;
10281;SDS011;5186;59.472;18.048;2023-05-07T01:00:29;3.57;;;2.30;;
10281;SDS011;5186;59.472;18.048;2023-05-07T01:05:31;4.00;;;1.60;;
10281;SDS011;5186;59.472;18.048;2023-05-07T01:07:57;4.77;;;1.90;;
10281;SDS011;5186;59.472;18.048;2023-05-07T01:10:24;3.07;;;2.07;;
10281;SDS011;5186;59.472;18.048;2023-05-07T01:12:50;2.90;;;1.63;;
10281;SDS011;5186;59.472;18.048;2023-05-07T01:15:16;5.77;;;1.93;;
10281;SDS011;5186;59.472;18.048;2023-05-07T01:17:42;4.67;;;1.90;;
10281;SDS011;5186;59.472;18.048;2023-05-07T01:20:08;4.70;;;1.90;;
10281;SDS011;5186;59.472;18.048;2023-05-07T01:22:38;5.33;;;2.10;;
10281;SDS011;5186;59.472;18.048;2023-05-07T01:25:04;6.13;;;1.93;;
10281;SDS011;5186;59.472;18.048;2023-05-07T01:27:31;5.30;;;2.37;;
10281;SDS011;5186;59.472;18.048;2023-05-07T01:29:58;4.07;;;2.03;;
10281;SDS011;5186;59.472;18.048;2023-05-07T01:32:29;3.57;;;2.10;;
10281;SDS011;5186;59.472;18.048;2023-05-07T01:35:01;3.90;;;1.77;;
10281;SDS011;5186;59.472;18.048;2023-05-07T01:37:30;2.40;;;1.70;;
10281;SDS011;5186;59.472;18.048;2023-05-07T01:39:55;6.17;;;1.93;;
10281;SDS011;5186;59.472;18.048;2023-05-07T01:42:22;2.77;;;2.00;;
10281;SDS011;5186;59.472;18.048;2023-05-07T01:44:48;6.53;;;1.73;;
10281;SDS011;5186;59.472;18.048;2023-05-07T01:47:14;2.23;;;1.50;;
10281;SDS011;5186;59.472;18.048;2023-05-07T01:49:40;3.83;;;1.90;;
10281;SDS011;5186;59.472;18.048;2023-05-07T01:52:07;3.23;;;1.73;;
10281;SDS011;5186;59.472;18.048;2023-05-07T01:54:35;4.10;;;1.70;;
10281;SDS011;5186;59.472;18.048;2023-05-07T01:57:00;5.23;;;2.10;;
10281;SDS011;5186;59.472;18.048;2023-05-07T01:59:26;2.30;;;1.60;;
10281;SDS011;5186;59.472;18.048;2023-05-07T02:01:52;3.77;;;2.00;;
10281;SDS011;5186;59.472;18.048;2023-05-07T02:04:17;3.87;;;2.17;;
10281;SDS011;5186;59.472;18.048;2023-05-07T02:06:43;4.33;;;1.80;;
10281;SDS011;5186;59.472;18.048;2023-05-07T02:09:08;4.07;;;2.07;;
10281;SDS011;5186;59.472;18.048;2023-05-07T02:11:34;3.90;;;1.90;;
10281;SDS011;5186;59.472;18.048;2023-05-07T02:14:00;4.07;;;1.80;;
10281;SDS011;5186;59.472;18.048;2023-05-07T02:16:26;4.90;;;2.00;;
10281;SDS011;5186;59.472;18.048;2023-05-07T02:18:51;2.77;;;1.70;;
10281;SDS011;5186;59.472;18.048;2023-05-07T02:21:17;3.13;;;2.00;;
10281;SDS011;5186;59.472;18.048;2023-05-07T02:23:42;3.33;;;2.13;;
10281;SDS011;5186;59.472;18.048;2023-05-07T02:26:08;6.37;;;2.17;;
10281;SDS011;5186;59.472;18.048;2023-05-07T02:28:34;5.00;;;2.17;;
10281;SDS011;5186;59.472;18.048;2023-05-07T02:31:02;5.97;;;2.03;;
10281;SDS011;5186;59.472;18.048;2023-05-07T02:33:28;3.03;;;1.80;;
10281;SDS011;5186;59.472;18.048;2023-05-07T02:35:54;6.77;;;1.97;;
10281;SDS011;5186;59.472;18.048;2023-05-07T02:38:20;4.00;;;1.90;;
10281;SDS011;5186;59.472;18.048;2023-05-07T02:40:46;3.23;;;1.70;;
10281;SDS011;5186;59.472;18.048;2023-05-07T02:43:12;5.60;;;2.20;;
10281;SDS011;5186;59.472;18.048;2023-05-07T02:45:40;4.13;;;2.27;;
10281;SDS011;5186;59.472;18.048;2023-05-07T02:48:05;7.10;;;2.10;;
10281;SDS011;5186;59.472;18.048;2023-05-07T02:50:31;2.23;;;1.80;;
10281;SDS011;5186;59.472;18.048;2023-05-07T02:52:57;4.53;;;1.83;;
10281;SDS011;5186;59.472;18.048;2023-05-07T02:55:23;3.77;;;2.10;;
10281;SDS011;5186;59.472;18.048;2023-05-07T02:57:49;5.33;;;1.80;;
10281;SDS011;5186;59.472;18.048;2023-05-07T03:00:18;4.73;;;2.77;;
10281;SDS011;5186;59.472;18.048;2023-05-07T03:02:44;3.27;;;2.23;;
10281;SDS011;5186;59.472;18.048;2023-05-07T03:05:10;5.53;;;2.00;;
10281;SDS011;5186;59.472;18.048;2023-05-07T03:07:37;2.67;;;2.03;;
10281;SDS011;5186;59.472;18.048;2023-05-07T03:10:03;3.97;;;2.10;;
10281;SDS011;5186;59.472;18.048;2023-05-07T03:12:30;2.80;;;1.93;;
10281;SDS011;5186;59.472;18.048;2023-05-07T03:14:56;3.40;;;2.30;;
10281;SDS011;5186;59.472;18.048;2023-05-07T03:17:22;4.90;;;2.20;;
10281;SDS011;5186;59.472;18.048;2023-05-07T03:19:47;5.00;;;2.30;;
10281;SDS011;5186;59.472;18.048;2023-05-07T03:22:13;4.13;;;2.00;;
10281;SDS011;5186;59.472;18.048;2023-05-07T03:24:43;3.90;;;2.20;;
10281;SDS011;5186;59.472;18.048;2023-05-07T03:27:09;3.43;;;2.53;;
10281;SDS011;5186;59.472;18.048;2023-05-07T03:29:34;3.77;;;2.20;;
10281;SDS011;5186;59.472;18.048;2023-05-07T03:32:00;8.07;;;2.00;;
10281;SDS011;5186;59.472;18.048;2023-05-07T03:34:26;4.47;;;1.53;;
10281;SDS011;5186;59.472;18.048;2023-05-07T03:36:51;3.33;;;2.30;;
10281;SDS011;5186;59.472;18.048;2023-05-07T03:39:17;3.17;;;1.77;;
10281;SDS011;5186;59.472;18.048;2023-05-07T03:41:42;4.80;;;2.07;;
10281;SDS011;5186;59.472;18.048;2023-05-07T03:44:08;4.07;;;2.30;;
10281;SDS011;5186;59.472;18.048;2023-05-07T03:46:34;5.40;;;2.40;;
10281;SDS011;5186;59.472;18.048;2023-05-07T03:48:59;6.93;;;2.23;;
10281;SDS011;5186;59.472;18.048;2023-05-07T03:51:25;5.73;;;2.17;;
10281;SDS011;5186;59.472;18.048;2023-05-07T03:53:51;2.77;;;2.07;;
10281;SDS011;5186;59.472;18.048;2023-05-07T03:56:22;3.80;;;2.47;;
10281;SDS011;5186;59.472;18.048;2023-05-07T03:58:48;4.73;;;2.17;;
10281;SDS011;5186;59.472;18.048;2023-05-07T04:01:13;3.03;;;2.27;;
10281;SDS011;5186;59.472;18.048;2023-05-07T04:03:39;4.43;;;1.97;;
10281;SDS011;5186;59.472;18.048;2023-05-07T04:06:05;3.70;;;1.90;;
10281;SDS011;5186;59.472;18.048;2023-05-07T04:08:30;4.07;;;2.23;;
10281;SDS011;5186;59.472;18.048;2023-05-07T04:10:56;2.67;;;1.90;;
10281;SDS011;5186;59.472;18.048;2023-05-07T04:13:23;3.03;;;2.20;;
10281;SDS011;5186;59.472;18.048;2023-05-07T04:15:48;4.80;;;2.00;;
10281;SDS011;5186;59.472;18.048;2023-05-07T04:18:14;3.90;;;2.07;;
10281;SDS011;5186;59.472;18.048;2023-05-07T04:20:40;3.27;;;2.30;;
10281;SDS011;5186;59.472;18.048;2023-05-07T04:23:06;2.93;;;2.00;;
10281;SDS011;5186;59.472;18.048;2023-05-07T04:25:32;3.10;;;1.90;;
10281;SDS011;5186;59.472;18.048;2023-05-07T04:27:58;4.07;;;2.50;;
10281;SDS011;5186;59.472;18.048;2023-05-07T04:30:24;2.70;;;2.20;;
10281;SDS011;5186;59.472;18.048;2023-05-07T04:32:50;5.83;;;2.20;;
10281;SDS011;5186;59.472;18.048;2023-05-07T04:35:15;2.73;;;2.23;;
10281;SDS011;5186;59.472;18.048;2023-05-07T04:37:42;3.40;;;2.67;;
10281;SDS011;5186;59.472;18.048;2023-05-07T04:40:08;3.90;;;2.33;;
10281;SDS011;5186;59.472;18.048;2023-05-07T04:42:33;3.97;;;2.50;;
10281;SDS011;5186;59.472;18.048;2023-05-07T04:45:00;3.50;;;2.03;;
10281;SDS011;5186;59.472;18.048;2023-05-07T04:47:26;4.50;;;2.27;;
10281;SDS011;5186;59.472;18.048;2023-05-07T04:49:52;5.90;;;2.67;;
10281;SDS011;5186;59.472;18.048;2023-05-07T04:52:18;4.87;;;2.57;;
10281;SDS011;5186;59.472;18.048;2023-05-07T04:54:43;3.07;;;2.23;;
10281;SDS011;5186;59.472;18.048;2023-05-07T04:57:09;6.47;;;2.63;;
10281;SDS011;5186;59.472;18.048;2023-05-07T04:59:34;4.33;;;2.73;;
10281;SDS011;5186;59.472;18.048;2023-05-07T05:02:01;5.10;;;2.60;;
10281;SDS011;5186;59.472;18.048;2023-05-07T05:04:29;4.70;;;2.80;;
10281;SDS011;5186;59.472;18.048;2023-05-07T05:06:57;4.63;;;3.00;;
10281;SDS011;5186;59.472;18.048;2023-05-07T05:09:23;4.13;;;2.70;;
10281;SDS011;5186;59.472;18.048;2023-05-07T05:11:49;4.93;;;2.83;;
10281;SDS011;5186;59.472;18.048;2023-05-07T05:14:14;4.30;;;2.80;;
10281;SDS011;5186;59.472;18.048;2023-05-07T05:16:40;3.93;;;2.80;;
10281;SDS011;5186;59.472;18.048;2023-05-07T05:19:05;3.00;;;2.40;;
10281;SDS011;5186;59.472;18.048;2023-05-07T05:21:32;5.97;;;2.90;;
10281;SDS011;5186;59.472;18.048;2023-05-07T05:24:00;6.03;;;3.03;;
10281;SDS011;5186;59.472;18.048;2023-05-07T05:26:26;3.70;;;2.70;;
10281;SDS011;5186;59.472;18.048;2023-05-07T05:28:54;4.50;;;2.20;;
10281;SDS011;5186;59.472;18.048;2023-05-07T05:31:19;4.37;;;2.87;;
10281;SDS011;5186;59.472;18.048;2023-05-07T05:33:45;3.10;;;2.10;;
10281;SDS011;5186;59.472;18.048;2023-05-07T05:36:10;4.77;;;2.20;;
10281;SDS011;5186;59.472;18.048;2023-05-07T05:38:38;4.07;;;2.00;;
10281;SDS011;5186;59.472;18.048;2023-05-07T05:41:04;6.30;;;2.27;;
10281;SDS011;5186;59.472;18.048;2023-05-07T05:43:29;3.10;;;1.80;;
10281;SDS011;5186;59.472;18.048;2023-05-07T05:45:55;2.30;;;1.70;;
10281;SDS011;5186;59.472;18.048;2023-05-07T05:48:21;3.53;;;1.77;;
10281;SDS011;5186;59.472;18.048;2023-05-07T05:50:47;2.93;;;1.90;;
10281;SDS011;5186;59.472;18.048;2023-05-07T05:53:13;1.93;;;1.80;;
10281;SDS011;5186;59.472;18.048;2023-05-07T05:55:38;3.43;;;2.17;;
10281;SDS011;5186;59.472;18.048;2023-05-07T05:58:04;3.83;;;1.97;;
10281;SDS011;5186;59.472;18.048;2023-05-07T06:00:32;2.27;;;1.80;;
10281;SDS011;5186;59.472;18.048;2023-05-07T06:02:58;2.33;;;1.87;;
10281;SDS011;5186;59.472;18.048;2023-05-07T06:05:24;3.30;;;1.50;;
10281;SDS011;5186;59.472;18.048;2023-05-07T06:07:49;2.83;;;1.90;;
10281;SDS011;5186;59.472;18.048;2023-05-07T06:10:15;2.77;;;1.67;;
10281;SDS011;5186;59.472;18.048;2023-05-07T06:12:41;4.90;;;2.00;;
10281;SDS011;5186;59.472;18.048;2023-05-07T06:15:07;3.03;;;1.73;;
10281;SDS011;5186;59.472;18.048;2023-05-07T06:17:32;1.57;;;1.40;;
10281;SDS011;5186;59.472;18.048;2023-05-07T06:19:58;1.80;;;1.50;;
10281;SDS011;5186;59.472;18.048;2023-05-07T06:22:24;2.97;;;1.40;;
10281;SDS011;5186;59.472;18.048;2023-05-07T06:24:50;2.70;;;1.60;;
10281;SDS011;5186;59.472;18.048;2023-05-07T06:27:15;2.33;;;1.63;;
10281;SDS011;5186;59.472;18.048;2023-05-07T06:29:41;2.60;;;1.40;;
10281;SDS011;5186;59.472;18.048;2023-05-07T06:32:07;3.30;;;1.60;;
10281;SDS011;5186;59.472;18.048;2023-05-07T06:34:38;1.57;;;1.30;;
10281;SDS011;5186;59.472;18.048;2023-05-07T06:37:04;3.60;;;1.70;;
10281;SDS011;5186;59.472;18.048;2023-05-07T06:39:31;1.57;;;1.30;;
10281;SDS011;5186;59.472;18.048;2023-05-07T06:41:57;2.00;;;1.40;;
10281;SDS011;5186;59.472;18.048;2023-05-07T06:44:23;2.03;;;1.80;;
10281;SDS011;5186;59.472;18.048;2023-05-07T06:46:49;2.83;;;1.37;;
10281;SDS011;5186;59.472;18.048;2023-05-07T06:49:15;2.43;;;1.40;;
10281;SDS011;5186;59.472;18.048;2023-05-07T06:51:40;2.30;;;1.47;;
10281;SDS011;5186;59.472;18.048;2023-05-07T06:54:06;1.23;;;1.13;;
10281;SDS011;5186;59.472;18.048;2023-05-07T06:56:32;1.77;;;1.40;;
10281;SDS011;5186;59.472;18.048;2023-05-07T06:58:59;2.13;;;1.30;;
10281;SDS011;5186;59.472;18.048;2023-05-07T07:01:28;1.93;;;1.20;;
10281;SDS011;5186;59.472;18.048;2023-05-07T07:03:53;1.73;;;1.53;;
10281;SDS011;5186;59.472;18.048;2023-05-07T07:06:19;2.23;;;1.30;;
10281;SDS011;5186;59.472;18.048;2023-05-07T07:08:45;3.90;;;1.47;;
10281;SDS011;5186;59.472;18.048;2023-05-07T07:11:10;1.50;;;1.30;;
10281;SDS011;5186;59.472;18.048;2023-05-07T07:13:36;1.80;;;1.17;;
10281;SDS011;5186;59.472;18.048;2023-05-07T07:16:02;3.53;;;1.87;;
10281;SDS011;5186;59.472;18.048;2023-05-07T07:18:28;2.37;;;1.23;;
10281;SDS011;5186;59.472;18.048;2023-05-07T07:20:53;4.27;;;1.53;;
10281;SDS011;5186;59.472;18.048;2023-05-07T07:23:19;3.00;;;1.30;;
10281;SDS011;5186;59.472;18.048;2023-05-07T07:25:45;1.63;;;1.27;;
10281;SDS011;5186;59.472;18.048;2023-05-07T07:28:11;2.07;;;1.10;;
10281;SDS011;5186;59.472;18.048;2023-05-07T07:30:37;1.27;;;1.07;;
10281;SDS011;5186;59.472;18.048;2023-05-07T07:33:03;2.20;;;1.00;;
10281;SDS011;5186;59.472;18.048;2023-05-07T07:35:30;1.30;;;1.20;;
10281;SDS011;5186;59.472;18.048;2023-05-07T07:37:56;1.60;;;1.30;;
10281;SDS011;5186;59.472;18.048;2023-05-07T07:40:21;1.57;;;1.10;;
10281;SDS011;5186;59.472;18.048;2023-05-07T07:42:47;1.80;;;1.10;;
10281;SDS011;5186;59.472;18.048;2023-05-07T07:45:13;2.80;;;1.40;;
10281;SDS011;5186;59.472;18.048;2023-05-07T07:47:39;1.67;;;1.40;;
10281;SDS011;5186;59.472;18.048;2023-05-07T07:50:05;3.67;;;1.40;;
10281;SDS011;5186;59.472;18.048;2023-05-07T07:52:32;2.40;;;1.20;;
10281;SDS011;5186;59.472;18.048;2023-05-07T07:54:57;1.50;;;1.23;;
10281;SDS011;5186;59.472;18.048;2023-05-07T07:57:23;1.87;;;0.90;;
10281;SDS011;5186;59.472;18.048;2023-05-07T07:59:49;2.03;;;1.13;;
10281;SDS011;5186;59.472;18.048;2023-05-07T08:02:15;1.40;;;1.20;;
10281;SDS011;5186;59.472;18.048;2023-05-07T08:04:41;1.27;;;1.17;;
10281;SDS011;5186;59.472;18.048;2023-05-07T08:07:08;2.37;;;1.43;;
10281;SDS011;5186;59.472;18.048;2023-05-07T08:09:37;3.00;;;1.40;;
10281;SDS011;5186;59.472;18.048;2023-05-07T08:12:03;1.60;;;1.27;;
10281;SDS011;5186;59.472;18.048;2023-05-07T08:14:29;2.10;;;1.00;;
10281;SDS011;5186;59.472;18.048;2023-05-07T08:16:58;1.93;;;1.20;;
10281;SDS011;5186;59.472;18.048;2023-05-07T08:19:26;2.60;;;1.20;;
10281;SDS011;5186;59.472;18.048;2023-05-07T08:21:51;1.27;;;1.10;;
10281;SDS011;5186;59.472;18.048;2023-05-07T08:24:17;1.40;;;1.30;;
10281;SDS011;5186;59.472;18.048;2023-05-07T08:26:43;1.73;;;1.10;;
10281;SDS011;5186;59.472;18.048;2023-05-07T08:29:10;3.17;;;1.10;;
10281;SDS011;5186;59.472;18.048;2023-05-07T08:31:35;1.50;;;1.03;;
10281;SDS011;5186;59.472;18.048;2023-05-07T08:34:01;1.37;;;1.27;;
10281;SDS011;5186;59.472;18.048;2023-05-07T08:36:28;1.83;;;1.60;;
10281;SDS011;5186;59.472;18.048;2023-05-07T08:38:53;2.67;;;1.17;;
10281;SDS011;5186;59.472;18.048;2023-05-07T08:41:19;2.03;;;1.20;;
10281;SDS011;5186;59.472;18.048;2023-05-07T08:43:46;1.20;;;1.10;;
10281;SDS011;5186;59.472;18.048;2023-05-07T08:46:18;4.70;;;1.30;;
10281;SDS011;5186;59.472;18.048;2023-05-07T08:48:47;1.70;;;1.10;;
10281;SDS011;5186;59.472;18.048;2023-05-07T08:51:16;1.23;;;1.00;;
10281;SDS011;5186;59.472;18.048;2023-05-07T08:53:45;1.30;;;1.20;;
10281;SDS011;5186;59.472;18.048;2023-05-07T08:56:13;1.87;;;1.27;;
10281;SDS011;5186;59.472;18.048;2023-05-07T08:58:40;2.00;;;1.27;;
10281;SDS011;5186;59.472;18.048;2023-05-07T09:01:07;2.63;;;1.30;;
10281;SDS011;5186;59.472;18.048;2023-05-07T09:03:34;1.37;;;1.10;;
10281;SDS011;5186;59.472;18.048;2023-05-07T09:06:02;1.30;;;1.00;;
10281;SDS011;5186;59.472;18.048;2023-05-07T09:08:27;2.47;;;1.10;;
10281;SDS011;5186;59.472;18.048;2023-05-07T09:10:53;2.93;;;1.17;;
10281;SDS011;5186;59.472;18.048;2023-05-07T09:13:19;1.30;;;1.20;;
10281;SDS011;5186;59.472;18.048;2023-05-07T09:15:45;1.10;;;1.00;;
10281;SDS011;5186;59.472;18.048;2023-05-07T09:18:12;1.13;;;0.93;;
10281;SDS011;5186;59.472;18.048;2023-05-07T09:20:38;1.30;;;0.87;;
10281;SDS011;5186;59.472;18.048;2023-05-07T09:23:05;1.20;;;1.10;;
10281;SDS011;5186;59.472;18.048;2023-05-07T09:25:32;3.33;;;1.00;;
10281;SDS011;5186;59.472;18.048;2023-05-07T09:27:59;1.30;;;1.03;;
10281;SDS011;5186;59.472;18.048;2023-05-07T09:30:29;1.23;;;1.13;;
10281;SDS011;5186;59.472;18.048;2023-05-07T09:32:56;1.93;;;1.30;;
10281;SDS011;5186;59.472;18.048;2023-05-07T09:35:25;2.93;;;1.30;;
10281;SDS011;5186;59.472;18.048;2023-05-07T09:37:55;1.57;;;1.40;;
10281;SDS011;5186;59.472;18.048;2023-05-07T09:40:23;2.60;;;1.10;;
10281;SDS011;5186;59.472;18.048;2023-05-07T09:42:52;2.97;;;1.00;;
10281;SDS011;5186;59.472;18.048;2023-05-07T09:45:21;3.43;;;1.30;;
10281;SDS011;5186;59.472;18.048;2023-05-07T09:47:47;4.17;;;1.30;;
10281;SDS011;5186;59.472;18.048;2023-05-07T09:50:14;1.07;;;1.03;;
10281;SDS011;5186;59.472;18.048;2023-05-07T09:52:41;3.27;;;1.60;;
10281;SDS011;5186;59.472;18.048;2023-05-07T09:55:08;2.47;;;1.30;;
10281;SDS011;5186;59.472;18.048;2023-05-07T09:57:35;1.23;;;1.13;;
10281;SDS011;5186;59.472;18.048;2023-05-07T10:00:02;2.70;;;1.40;;
10281;SDS011;5186;59.472;18.048;2023-05-07T10:02:31;1.10;;;1.00;;
10281;SDS011;5186;59.472;18.048;2023-05-07T10:04:59;3.63;;;1.20;;
10281;SDS011;5186;59.472;18.048;2023-05-07T10:07:28;1.33;;;1.00;;
10281;SDS011;5186;59.472;18.048;2023-05-07T10:09:55;2.73;;;1.20;;
10281;SDS011;5186;59.472;18.048;2023-05-07T10:12:21;1.90;;;1.20;;
10281;SDS011;5186;59.472;18.048;2023-05-07T10:14:46;2.20;;;1.10;;
10281;SDS011;5186;59.472;18.048;2023-05-07T10:17:13;3.03;;;1.40;;
10281;SDS011;5186;59.472;18.048;2023-05-07T10:19:43;1.70;;;1.30;;
10281;SDS011;5186;59.472;18.048;2023-05-07T10:22:09;2.53;;;1.20;;
10281;SDS011;5186;59.472;18.048;2023-05-07T10:24:38;4.60;;;1.47;;
10281;SDS011;5186;59.472;18.048;2023-05-07T10:27:05;1.77;;;0.90;;
10281;SDS011;5186;59.472;18.048;2023-05-07T10:32:08;1.70;;;1.20;;
10281;SDS011;5186;59.472;18.048;2023-05-07T10:34:43;1.27;;;1.00;;
10281;SDS011;5186;59.472;18.048;2023-05-07T10:37:11;1.80;;;1.30;;
10281;SDS011;5186;59.472;18.048;2023-05-07T10:39:37;2.93;;;1.10;;
10281;SDS011;5186;59.472;18.048;2023-05-07T10:42:09;1.67;;;1.30;;
10281;SDS011;5186;59.472;18.048;2023-05-07T10:44:36;2.00;;;1.10;;
10281;SDS011;5186;59.472;18.048;2023-05-07T10:47:12;2.07;;;1.10;;
10281;SDS011;5186;59.472;18.048;2023-05-07T10:52:17;2.17;;;1.10;;
10281;SDS011;5186;59.472;18.048;2023-05-07T10:55:02;1.20;;;1.10;;
10281;SDS011;5186;59.472;18.048;2023-05-07T10:57:42;1.57;;;1.37;;
10281;SDS011;5186;59.472;18.048;2023-05-07T11:05:32;2.10;;;1.50;;
10281;SDS011;5186;59.472;18.048;2023-05-07T11:07:59;2.43;;;1.00;;
10281;SDS011;5186;59.472;18.048;2023-05-07T11:16:16;1.57;;;1.47;;
10281;SDS011;5186;59.472;18.048;2023-05-07T11:18:55;5.80;;;1.20;;
10281;SDS011;5186;59.472;18.048;2023-05-07T11:24:16;1.87;;;1.17;;
10281;SDS011;5186;59.472;18.048;2023-05-07T11:26:43;1.50;;;1.20;;
10281;SDS011;5186;59.472;18.048;2023-05-07T11:29:16;4.47;;;1.30;;
10281;SDS011;5186;59.472;18.048;2023-05-07T11:31:43;2.90;;;1.33;;
10281;SDS011;5186;59.472;18.048;2023-05-07T11:34:13;1.43;;;1.33;;
10281;SDS011;5186;59.472;18.048;2023-05-07T11:36:41;1.50;;;1.07;;
10281;SDS011;5186;59.472;18.048;2023-05-07T11:39:23;3.97;;;1.47;;
10281;SDS011;5186;59.472;18.048;2023-05-07T11:41:50;2.33;;;1.00;;
10281;SDS011;5186;59.472;18.048;2023-05-07T11:44:15;3.00;;;1.40;;
10281;SDS011;5186;59.472;18.048;2023-05-07T11:46:42;1.70;;;1.20;;
10281;SDS011;5186;59.472;18.048;2023-05-07T11:49:09;3.30;;;1.40;;
10281;SDS011;5186;59.472;18.048;2023-05-07T11:51:35;2.17;;;1.00;;
10281;SDS011;5186;59.472;18.048;2023-05-07T11:54:03;6.63;;;1.37;;
10281;SDS011;5186;59.472;18.048;2023-05-07T11:56:33;1.87;;;1.20;;
10281;SDS011;5186;59.472;18.048;2023-05-07T11:59:00;2.10;;;1.30;;
10281;SDS011;5186;59.472;18.048;2023-05-07T12:01:26;2.07;;;1.30;;
10281;SDS011;5186;59.472;18.048;2023-05-07T12:03:51;2.70;;;1.20;;
10281;SDS011;5186;59.472;18.048;2023-05-07T12:06:17;2.37;;;1.30;;
10281;SDS011;5186;59.472;18.048;2023-05-07T12:08:44;1.63;;;1.30;;
10281;SDS011;5186;59.472;18.048;2023-05-07T12:11:14;1.67;;;1.00;;
10281;SDS011;5186;59.472;18.048;2023-05-07T12:13:43;1.67;;;1.13;;
10281;SDS011;5186;59.472;18.048;2023-05-07T12:16:09;1.67;;;1.00;;
10281;SDS011;5186;59.472;18.048;2023-05-07T12:18:35;1.60;;;1.10;;
10281;SDS011;5186;59.472;18.048;2023-05-07T12:21:02;3.00;;;1.20;;
10281;SDS011;5186;59.472;18.048;2023-05-07T12:23:30;3.47;;;1.40;;
10281;SDS011;5186;59.472;18.048;2023-05-07T12:25:56;2.50;;;1.33;;
10281;SDS011;5186;59.472;18.048;2023-05-07T12:28:21;2.20;;;1.40;;
10281;SDS011;5186;59.472;18.048;2023-05-07T12:30:47;2.30;;;1.20;;
10281;SDS011;5186;59.472;18.048;2023-05-07T12:33:18;3.00;;;1.13;;
10281;SDS011;5186;59.472;18.048;2023-05-07T12:35:51;2.10;;;1.13;;
10281;SDS011;5186;59.472;18.048;2023-05-07T12:38:18;1.23;;;1.03;;
10281;SDS011;5186;59.472;18.048;2023-05-07T12:40:48;1.63;;;0.87;;
10281;SDS011;5186;59.472;18.048;2023-05-07T12:43:25;1.57;;;1.07;;
10281;SDS011;5186;59.472;18.048;2023-05-07T12:45:56;1.30;;;1.10;;
10281;SDS011;5186;59.472;18.048;2023-05-07T12:48:24;3.57;;;1.20;;
10281;SDS011;5186;59.472;18.048;2023-05-07T12:50:55;2.43;;;1.60;;
10281;SDS011;5186;59.472;18.048;2023-05-07T12:53:22;3.80;;;1.40;;
10281;SDS011;5186;59.472;18.048;2023-05-07T12:55:50;1.63;;;1.10;;
10281;SDS011;5186;59.472;18.048;2023-05-07T12:58:21;2.63;;;1.27;;
10281;SDS011;5186;59.472;18.048;2023-05-07T13:00:49;1.50;;;1.10;;
10281;SDS011;5186;59.472;18.048;2023-05-07T13:05:49;2.80;;;0.90;;
10281;SDS011;5186;59.472;18.048;2023-05-07T13:08:28;2.63;;;1.20;;
10281;SDS011;5186;59.472;18.048;2023-05-07T13:10:54;3.17;;;0.90;;
10281;SDS011;5186;59.472;18.048;2023-05-07T13:13:20;2.27;;;1.27;;
10281;SDS011;5186;59.472;18.048;2023-05-07T13:15:46;2.67;;;1.10;;
10281;SDS011;5186;59.472;18.048;2023-05-07T13:18:12;3.13;;;1.00;;
10281;SDS011;5186;59.472;18.048;2023-05-07T13:20:38;0.90;;;0.73;;
10281;SDS011;5186;59.472;18.048;2023-05-07T13:23:04;1.00;;;0.83;;
10281;SDS011;5186;59.472;18.048;2023-05-07T13:25:30;3.37;;;1.07;;
10281;SDS011;5186;59.472;18.048;2023-05-07T13:27:58;3.80;;;1.50;;
10281;SDS011;5186;59.472;18.048;2023-05-07T13:30:24;1.83;;;0.87;;
10281;SDS011;5186;59.472;18.048;2023-05-07T13:32:49;1.87;;;1.00;;
10281;SDS011;5186;59.472;18.048;2023-05-07T13:35:17;1.37;;;0.80;;
10281;SDS011;5186;59.472;18.048;2023-05-07T13:37:42;2.93;;;0.97;;
10281;SDS011;5186;59.472;18.048;2023-05-07T13:40:08;1.47;;;1.20;;
10281;SDS011;5186;59.472;18.048;2023-05-07T13:42:34;2.37;;;0.97;;
10281;SDS011;5186;59.472;18.048;2023-05-07T13:45:00;1.47;;;1.00;;
10281;SDS011;5186;59.472;18.048;2023-05-07T13:47:28;1.60;;;0.90;;
10281;SDS011;5186;59.472;18.048;2023-05-07T13:49:53;2.47;;;1.00;;
10281;SDS011;5186;59.472;18.048;2023-05-07T13:52:20;4.37;;;1.00;;
10281;SDS011;5186;59.472;18.048;2023-05-07T13:54:47;2.53;;;1.00;;
10281;SDS011;5186;59.472;18.048;2023-05-07T13:57:12;2.40;;;1.13;;
10281;SDS011;5186;59.472;18.048;2023-05-07T13:59:38;3.90;;;1.07;;
10281;SDS011;5186;59.472;18.048;2023-05-07T14:02:04;2.23;;;1.00;;
10281;SDS011;5186;59.472;18.048;2023-05-07T14:04:30;2.90;;;1.00;;
10281;SDS011;5186;59.472;18.048;2023-05-07T14:06:55;2.13;;;1.00;;
10281;SDS011;5186;59.472;18.048;2023-05-07T14:09:21;1.20;;;1.10;;
10281;SDS011;5186;59.472;18.048;2023-05-07T14:11:47;2.50;;;1.37;;
10281;SDS011;5186;59.472;18.048;2023-05-07T14:14:16;1.73;;;1.27;;
10281;SDS011;5186;59.472;18.048;2023-05-07T14:16:42;2.40;;;1.10;;
10281;SDS011;5186;59.472;18.048;2023-05-07T14:19:08;3.07;;;1.10;;
10281;SDS011;5186;59.472;18.048;2023-05-07T14:21:34;1.30;;;1.00;;
10281;SDS011;5186;59.472;18.048;2023-05-07T14:23:59;2.73;;;1.20;;
10281;SDS011;5186;59.472;18.048;2023-05-07T14:26:28;2.53;;;0.90;;
10281;SDS011;5186;59.472;18.048;2023-05-07T14:28:54;2.10;;;1.10;;
10281;SDS011;5186;59.472;18.048;2023-05-07T14:31:22;1.40;;;1.00;;
10281;SDS011;5186;59.472;18.048;2023-05-07T14:33:48;2.10;;;1.00;;
10281;SDS011;5186;59.472;18.048;2023-05-07T14:36:15;4.10;;;1.10;;
10281;SDS011;5186;59.472;18.048;2023-05-07T14:38:40;1.70;;;1.10;;
10281;SDS011;5186;59.472;18.048;2023-05-07T14:41:06;2.67;;;1.30;;
10281;SDS011;5186;59.472;18.048;2023-05-07T14:43:31;4.43;;;1.10;;
10281;SDS011;5186;59.472;18.048;2023-05-07T14:45:57;3.20;;;1.40;;
10281;SDS011;5186;59.472;18.048;2023-05-07T14:48:28;2.80;;;1.03;;
10281;SDS011;5186;59.472;18.048;2023-05-07T14:50:53;1.60;;;1.17;;
10281;SDS011;5186;59.472;18.048;2023-05-07T14:53:19;3.67;;;1.10;;
10281;SDS011;5186;59.472;18.048;2023-05-07T14:55:45;3.67;;;1.50;;
10281;SDS011;5186;59.472;18.048;2023-05-07T14:58:11;1.20;;;1.10;;
10281;SDS011;5186;59.472;18.048;2023-05-07T15:00:37;1.83;;;1.00;;
10281;SDS011;5186;59.472;18.048;2023-05-07T15:03:07;2.30;;;1.20;;
10281;SDS011;5186;59.472;18.048;2023-05-07T15:05:34;2.20;;;0.90;;
10281;SDS011;5186;59.472;18.048;2023-05-07T15:08:00;1.40;;;0.90;;
10281;SDS011;5186;59.472;18.048;2023-05-07T15:10:25;1.83;;;1.13;;